Historyczne dane pomiarowe

Dodano dane terminowe – wersja testowa.

Dane z okresu 1951-2019

Wersja bazy: 1.34 [2019-03-16, lista zmian], aktualizacja planowana na 2019-04-15

Dane meteo z obszaru Polski uzyskane na podstawie danych udostępnionych przez Instytut Meteorologii i Gospodarki Wodnej – Państwowy Instytut Badawczy.

 

Wybierz Datę:    

       

TemperaturaWilgotnośćWiatrCiśnienieOpadyŚniegCzas trwania zjawisk
 Stacja t tx tn tng RH VA  wxwx mslp ppp RRR   cm mm wxwxwxwxwxwxwx
1990-12-13 -0.5 0.8 -2.1- 95.3- 8.0 2.3---- 0.6------------
1990-12-14 -0.3 0.5 -0.9- 93.3- 8.0 2.3---- 0.8------------
1990-12-15 -0.1 0.6 -0.9- 92.3- 8.0 3.3---- 1.4------------
1990-12-16 0.3 1.0 -0.1- 92.3- 8.0 3.7---- 0.3------------
1990-12-17 -0.7 0.0 -1.1- 90.0- 8.0 4.0---- 0.1------------
1990-12-18 -1.6 -0.8 -2.4- 84.5- 8.0 2.7---- 0.1------------
1990-12-19 -0.6 0.5 -2.1- 93.0- 8.0 0.3---- 0.5------------
1990-12-20 -1.2 0.4 -3.4- 90.5- 7.3 1.7---- 0.2------------
1990-12-21 0.2 1.4 -2.3- 92.5- 8.0 4.0---- 1.6-- 4---------
1990-12-22 0.2 1.6 -0.9- 92.0- 7.7 0.7---- 0.0-- 5---------
1990-12-23 -3.6 -0.6 -5.9- 93.0- 0.0 1.3---- 0.0-- 2---------
1990-12-24 -7.0 -3.0-10.9- 93.5- 0.0 0.0---- 0.0-- 2---------
1990-12-25 -2.8 0.2 -8.9- 75.3- 0.0 2.7---- 0.0-- 2---------
1990-12-26 0.3 2.3 -2.4- 80.3- 4.3 5.3---- 0.0-- 1---------
1990-12-27 3.5 5.4 0.6- 91.8- 5.3 4.3---- 0.2------------
1990-12-28 2.1 3.9 -0.4- 94.0- 4.0 4.0---- 0.0------------
1990-12-29 1.7 2.9 -1.3- 83.0- 6.3 4.7---- 1.7------------
1990-12-30 5.8 9.4 2.6- 90.8- 8.0 3.3---- 0.3------------
1990-12-31 3.6 7.1 1.6- 92.0- 4.0 1.7---- 4.6------------
1991-01-01 3.2 4.9 1.1- 97.8- 8.0 1.3---- 0.0------------
1991-01-02 1.8 4.1 -0.3- 89.0- 6.0 3.3---- 4.8------------
1991-01-03 6.9 9.7 2.7- 93.8- 8.0 3.3---- 2.6------------
1991-01-04 8.1 11.1 5.7- 91.3- 5.3 3.3---- 3.2------------
1991-01-05 4.6 7.5 1.9- 93.0- 6.0 2.7---- 0.2------------
1991-01-06 4.2 4.9 1.7- 75.0- 4.7 5.3---- 0.0------------
1991-01-07 4.8 7.1 2.1- 70.0- 4.0 3.3---- 3.2------------
1991-01-08 5.7 8.9 3.1- 83.3- 4.0 2.0---- 0.0------------
1991-01-09 6.6 8.9 4.6- 73.3- 6.7 4.7---- 0.0------------
1991-01-10 9.2 13.1 4.6- 67.5- 6.0 4.0---- 0.1------------
1991-01-11 8.7 11.6 8.2- 80.0- 8.0 1.3---- 0.1------------
235.1 ms

 

Źródłem pochodzenia danych jest Instytut Meteorologii i Gospodarki Wodnej – Państwowy Instytut Badawczy. Dane Instytutu Meteorologii i Gospodarki Wodnej – Państwowego Instytutu Badawczego zostały przetworzone.

Dane źródłowe można odnaleźć na stronie https://dane.imgw.pl